Time;durP1;ratioP1;P1;durP2;ratioP2;P2;SDS_P1;SDS_P2;PMS_P1;PMS_P2;Temp;Humidity;BMP_temperature;BMP_pressure;BME280_temperature;BME280_humidity;BME280_pressure;Samples;Min_cycle;Max_cycle;Signal;HPM_P1;HPM_P2
2021/12/25 00:00:49;;;;;;;1.73;1.30;;;;;;;;;;7390704;19;20465;-77
2021/12/25 00:03:16;;;;;;;2.38;1.17;;;;;;;;;;7392870;19;20003;-77
2021/12/25 00:05:41;;;;;;;1.95;1.00;;;;;;;;;;7394375;19;19998;-77
2021/12/25 00:08:07;;;;;;;1.90;1.33;;;;;;;;;;7389526;19;19999;-77
2021/12/25 00:10:32;;;;;;;1.50;1.17;;;;;;;;;;7390382;19;19999;-77
2021/12/25 00:12:58;;;;;;;1.67;1.10;;;;;;;;;;7390450;19;20002;-78
2021/12/25 00:15:23;;;;;;;1.20;1.00;;;;;;;;;;7389427;19;19998;-77
2021/12/25 00:17:49;;;;;;;2.03;1.33;;;;;;;;;;7390396;19;20454;-76
2021/12/25 00:20:15;;;;;;;2.85;1.50;;;;;;;;;;7388778;19;20327;-77
2021/12/25 00:22:40;;;;;;;3.72;2.13;;;;;;;;;;7390273;19;20082;-76
2021/12/25 00:25:06;;;;;;;3.15;1.60;;;;;;;;;;7389457;19;20015;-77
2021/12/25 00:27:53;;;;;;;1.75;1.08;;;;;;;;;;7393803;19;20335;-77
2021/12/25 00:30:26;;;;;;;3.25;1.80;;;;;;;;;;7389629;19;20009;-77
2021/12/25 00:35:16;;;;;;;1.23;1.00;;;;;;;;;;7389289;19;19999;-77
2021/12/25 00:37:42;;;;;;;1.65;1.20;;;;;;;;;;7389695;19;20478;-77
2021/12/25 00:40:08;;;;;;;1.45;1.20;;;;;;;;;;7388417;19;20422;-77
2021/12/25 00:42:33;;;;;;;1.40;1.02;;;;;;;;;;7389557;19;20007;-78
2021/12/25 00:44:58;;;;;;;2.05;1.05;;;;;;;;;;7389274;19;20469;-77
2021/12/25 00:47:24;;;;;;;1.00;0.90;;;;;;;;;;7389326;19;20017;-77
2021/12/25 00:49:49;;;;;;;2.25;1.10;;;;;;;;;;7387579;19;19994;-77
2021/12/25 00:52:14;;;;;;;1.25;0.95;;;;;;;;;;7393669;19;20045;-77
2021/12/25 00:54:40;;;;;;;2.13;0.95;;;;;;;;;;7391963;19;20002;-77
2021/12/25 00:57:06;;;;;;;1.70;0.88;;;;;;;;;;7389185;19;20005;-77
2021/12/25 00:59:32;;;;;;;2.05;0.90;;;;;;;;;;7394594;19;20016;-77
2021/12/25 01:01:58;;;;;;;1.70;0.75;;;;;;;;;;7397011;19;19994;-77
2021/12/25 01:04:24;;;;;;;1.70;1.00;;;;;;;;;;7395184;19;20432;-77
2021/12/25 01:06:49;;;;;;;2.47;1.17;;;;;;;;;;7394475;19;20002;-78
2021/12/25 01:09:14;;;;;;;1.05;0.93;;;;;;;;;;7395428;19;20002;-77
2021/12/25 01:11:42;;;;;;;1.60;0.93;;;;;;;;;;7396697;19;20027;-77
2021/12/25 01:14:32;;;;;;;2.03;1.13;;;;;;;;;;7395963;19;20085;-77
2021/12/25 01:30:20;;;;;;;2.97;1.55;;;;;;;;;;7395541;19;20323;-77
2021/12/25 01:41:14;;;;;;;5.22;1.33;;;;;;;;;;7397713;19;20005;-77
2021/12/25 01:49:06;;;;;;;1.60;1.20;;;;;;;;;;7395329;19;20346;-77
2021/12/25 01:51:32;;;;;;;2.58;1.15;;;;;;;;;;7395398;19;20462;-76
2021/12/25 01:53:57;;;;;;;12.82;3.05;;;;;;;;;;7394053;19;20141;-76
2021/12/25 01:56:23;;;;;;;5.78;1.60;;;;;;;;;;7393134;19;20442;-77
2021/12/25 01:58:48;;;;;;;1.63;1.10;;;;;;;;;;7392383;19;20002;-78
2021/12/25 02:01:14;;;;;;;3.95;1.38;;;;;;;;;;7394951;19;20030;-77
2021/12/25 02:03:40;;;;;;;2.22;1.25;;;;;;;;;;7394443;19;19998;-77
2021/12/25 02:06:08;;;;;;;2.65;1.48;;;;;;;;;;7393263;19;19998;-77
2021/12/25 02:08:34;;;;;;;3.10;1.55;;;;;;;;;;7393674;19;20009;-76
2021/12/25 02:11:00;;;;;;;2.70;2.03;;;;;;;;;;7392208;19;19994;-76
2021/12/25 02:13:25;;;;;;;2.58;1.60;;;;;;;;;;7394271;19;20007;-77
2021/12/25 02:15:54;;;;;;;5.85;2.28;;;;;;;;;;7392245;19;19999;-76
2021/12/25 02:18:55;;;;;;;1.77;1.20;;;;;;;;;;7393328;19;20327;-76
2021/12/25 02:21:20;;;;;;;1.50;1.13;;;;;;;;;;7394361;19;20007;-77
2021/12/25 02:23:48;;;;;;;1.77;1.15;;;;;;;;;;7393479;19;20026;-77
2021/12/25 02:26:13;;;;;;;4.00;2.30;;;;;;;;;;7392450;19;20006;-79
2021/12/25 02:28:39;;;;;;;2.72;1.70;;;;;;;;;;7393216;19;20390;-77
2021/12/25 02:31:08;;;;;;;1.67;1.40;;;;;;;;;;7396062;19;20023;-77
2021/12/25 02:33:34;;;;;;;2.75;1.10;;;;;;;;;;7398210;19;20010;-77
2021/12/25 02:36:00;;;;;;;6.55;2.88;;;;;;;;;;7391310;19;20303;-78
2021/12/25 02:38:26;;;;;;;2.40;1.30;;;;;;;;;;7393253;19;19999;-77
2021/12/25 02:40:52;;;;;;;1.73;1.20;;;;;;;;;;7394171;19;20003;-77
2021/12/25 02:43:17;;;;;;;1.75;1.08;;;;;;;;;;7393797;19;20108;-77
2021/12/25 02:45:43;;;;;;;1.85;1.02;;;;;;;;;;7392494;19;19998;-77
2021/12/25 02:48:11;;;;;;;2.92;1.10;;;;;;;;;;7392699;19;20014;-78
2021/12/25 02:50:38;;;;;;;2.55;1.35;;;;;;;;;;7393249;19;20027;-77
2021/12/25 02:53:07;;;;;;;1.60;1.27;;;;;;;;;;7392531;19;19998;-77
2021/12/25 02:55:32;;;;;;;2.25;1.52;;;;;;;;;;7391680;19;20006;-77
2021/12/25 02:57:58;;;;;;;3.33;1.48;;;;;;;;;;7392984;19;20107;-76
2021/12/25 03:00:27;;;;;;;2.42;1.52;;;;;;;;;;7393092;19;20009;-77
2021/12/25 03:02:53;;;;;;;6.28;3.33;;;;;;;;;;7392782;19;20009;-77
2021/12/25 03:05:19;;;;;;;4.00;1.90;;;;;;;;;;7391847;19;20058;-77
2021/12/25 03:07:45;;;;;;;2.95;1.60;;;;;;;;;;7392764;19;20020;-77
2021/12/25 03:10:13;;;;;;;2.00;1.48;;;;;;;;;;7391797;19;20343;-77
2021/12/25 03:12:49;;;;;;;2.25;1.20;;;;;;;;;;7392732;19;20534;-77
2021/12/25 03:15:25;;;;;;;1.90;1.35;;;;;;;;;;7391020;19;20006;-77
2021/12/25 03:17:51;;;;;;;1.65;1.20;;;;;;;;;;7392425;19;20083;-77
2021/12/25 03:20:17;;;;;;;2.40;1.45;;;;;;;;;;7393664;19;19999;-77
2021/12/25 03:22:42;;;;;;;2.50;1.48;;;;;;;;;;7395633;19;20031;-77
2021/12/25 03:25:10;;;;;;;2.53;1.08;;;;;;;;;;7391212;19;20019;-77
2021/12/25 03:27:38;;;;;;;1.70;1.10;;;;;;;;;;7392098;19;20020;-77
2021/12/25 03:30:05;;;;;;;2.60;1.20;;;;;;;;;;7391651;19;19998;-77
2021/12/25 03:32:30;;;;;;;2.05;1.20;;;;;;;;;;7392021;19;19991;-77
2021/12/25 03:34:56;;;;;;;2.70;1.50;;;;;;;;;;7390806;19;20029;-77
2021/12/25 03:37:21;;;;;;;2.10;1.13;;;;;;;;;;7391740;19;20011;-77
2021/12/25 03:39:46;;;;;;;1.92;1.33;;;;;;;;;;7390686;19;20005;-77
2021/12/25 03:42:11;;;;;;;0.93;0.88;;;;;;;;;;7391776;19;19999;-77
2021/12/25 03:44:37;;;;;;;2.58;1.40;;;;;;;;;;7391979;19;19999;-77
2021/12/25 03:47:12;;;;;;;1.27;1.02;;;;;;;;;;7389979;19;20042;-77
2021/12/25 03:57:55;;;;;;;1.83;1.25;;;;;;;;;;7391112;19;20009;-77
2021/12/25 04:00:28;;;;;;;1.30;1.20;;;;;;;;;;7390757;19;20002;-77
2021/12/25 04:02:57;;;;;;;1.73;1.20;;;;;;;;;;7391603;19;20007;-77
2021/12/25 04:05:28;;;;;;;1.80;1.50;;;;;;;;;;7390115;19;19998;-78
2021/12/25 04:08:03;;;;;;;1.33;1.00;;;;;;;;;;7391090;19;19994;-77
2021/12/25 04:10:34;;;;;;;1.45;1.30;;;;;;;;;;7391767;19;20383;-77
2021/12/25 04:12:59;;;;;;;0.80;0.80;;;;;;;;;;7393672;19;20006;-77
2021/12/25 04:15:25;;;;;;;2.53;1.17;;;;;;;;;;7389549;19;20002;-77
2021/12/25 04:17:50;;;;;;;1.98;1.23;;;;;;;;;;7389986;19;19999;-77
2021/12/25 04:20:17;;;;;;;1.20;1.10;;;;;;;;;;7392706;19;20023;-77
2021/12/25 04:22:56;;;;;;;1.80;1.40;;;;;;;;;;7390245;19;20009;-78
2021/12/25 04:25:27;;;;;;;2.83;1.00;;;;;;;;;;7389445;19;20010;-77
2021/12/25 04:27:53;;;;;;;1.85;1.08;;;;;;;;;;7390410;19;20003;-77
2021/12/25 04:30:29;;;;;;;1.67;1.10;;;;;;;;;;7389216;19;20021;-77
2021/12/25 04:49:47;;;;;;;1.52;1.05;;;;;;;;;;7388769;19;20035;-77
2021/12/25 05:05:46;;;;;;;2.88;1.02;;;;;;;;;;7387229;19;20531;-77
2021/12/25 05:08:12;;;;;;;1.30;1.05;;;;;;;;;;7387841;19;19998;-78
2021/12/25 05:10:37;;;;;;;2.35;1.23;;;;;;;;;;7389008;19;19995;-78
2021/12/25 05:13:02;;;;;;;1.90;1.15;;;;;;;;;;7388765;19;19999;-77
2021/12/25 05:15:28;;;;;;;2.03;1.30;;;;;;;;;;7388583;19;20025;-77
2021/12/25 05:17:53;;;;;;;2.20;1.40;;;;;;;;;;7391421;19;19999;-78
2021/12/25 05:20:18;;;;;;;2.10;1.20;;;;;;;;;;7391601;19;20352;-77
2021/12/25 05:22:44;;;;;;;2.85;1.88;;;;;;;;;;7388582;19;19994;-77
2021/12/25 05:25:11;;;;;;;2.78;1.88;;;;;;;;;;7387541;19;20016;-78
2021/12/25 05:27:40;;;;;;;1.92;1.20;;;;;;;;;;7386348;19;20366;-77
2021/12/25 05:30:07;;;;;;;5.55;3.05;;;;;;;;;;7388027;19;20015;-78
2021/12/25 05:32:32;;;;;;;3.03;2.13;;;;;;;;;;7388582;19;20009;-78
2021/12/25 05:34:57;;;;;;;1.90;1.50;;;;;;;;;;7387521;19;20017;-77
2021/12/25 05:37:22;;;;;;;1.42;1.10;;;;;;;;;;7388282;19;19991;-77
2021/12/25 05:39:51;;;;;;;1.17;0.95;;;;;;;;;;7387259;19;20470;-78
2021/12/25 05:42:20;;;;;;;1.42;0.90;;;;;;;;;;7387927;19;20003;-78
2021/12/25 05:44:46;;;;;;;1.60;1.10;;;;;;;;;;7390998;19;20007;-77
2021/12/25 05:47:12;;;;;;;2.38;1.45;;;;;;;;;;7395703;19;20006;-77
2021/12/25 05:49:37;;;;;;;2.63;2.00;;;;;;;;;;7398391;19;19995;-77
2021/12/25 05:52:03;;;;;;;2.55;1.27;;;;;;;;;;7398509;19;20073;-77
2021/12/25 05:54:29;;;;;;;4.18;2.20;;;;;;;;;;7394237;19;20475;-77
2021/12/25 05:56:54;;;;;;;2.75;1.60;;;;;;;;;;7392740;19;20351;-77
2021/12/25 05:59:19;;;;;;;1.95;1.75;;;;;;;;;;7394566;19;20127;-78
2021/12/25 06:01:45;;;;;;;2.47;1.08;;;;;;;;;;7394751;19;20018;-77
2021/12/25 06:04:10;;;;;;;2.80;1.80;;;;;;;;;;7394637;19;20074;-77
2021/12/25 06:06:35;;;;;;;3.67;2.00;;;;;;;;;;7393064;19;19994;-78
2021/12/25 06:09:01;;;;;;;4.10;2.10;;;;;;;;;;7393322;19;20014;-78
2021/12/25 06:11:27;;;;;;;3.33;2.05;;;;;;;;;;7394743;19;20109;-77
2021/12/25 06:14:05;;;;;;;2.42;1.90;;;;;;;;;;7397687;19;20003;-78
2021/12/25 06:16:30;;;;;;;2.83;1.70;;;;;;;;;;7392361;19;20012;-77
2021/12/25 06:18:56;;;;;;;2.80;1.75;;;;;;;;;;7393851;19;19998;-77
2021/12/25 06:21:21;;;;;;;1.98;1.60;;;;;;;;;;7394842;19;20449;-78
2021/12/25 06:23:46;;;;;;;1.90;1.30;;;;;;;;;;7393367;19;20002;-78
2021/12/25 06:26:12;;;;;;;2.05;1.20;;;;;;;;;;7392418;19;20458;-77
2021/12/25 06:28:37;;;;;;;1.88;1.13;;;;;;;;;;7393248;19;20058;-78
2021/12/25 06:31:03;;;;;;;2.22;1.02;;;;;;;;;;7393869;19;20058;-77
2021/12/25 06:33:28;;;;;;;1.77;1.20;;;;;;;;;;7393851;19;20029;-78
2021/12/25 06:35:53;;;;;;;1.25;0.98;;;;;;;;;;7392095;19;19995;-78
2021/12/25 06:38:18;;;;;;;3.47;1.63;;;;;;;;;;7395839;19;20002;-77
2021/12/25 06:40:44;;;;;;;1.75;1.20;;;;;;;;;;7398026;19;20054;-78
2021/12/25 06:43:09;;;;;;;1.20;1.00;;;;;;;;;;7393508;19;20002;-77
2021/12/25 06:45:34;;;;;;;1.48;1.00;;;;;;;;;;7392426;19;20002;-77
2021/12/25 06:47:59;;;;;;;1.90;1.23;;;;;;;;;;7392834;19;20009;-78
2021/12/25 06:50:25;;;;;;;3.03;1.50;;;;;;;;;;7393441;19;20037;-77
2021/12/25 06:52:50;;;;;;;1.58;1.05;;;;;;;;;;7393519;19;19998;-77
2021/12/25 06:55:16;;;;;;;1.15;0.88;;;;;;;;;;7390643;19;19999;-77
2021/12/25 06:57:52;;;;;;;1.73;1.23;;;;;;;;;;7391920;19;20054;-78
2021/12/25 07:00:17;;;;;;;2.05;1.02;;;;;;;;;;7392363;19;20000;-77
2021/12/25 07:02:43;;;;;;;2.97;1.45;;;;;;;;;;7392984;19;20349;-78
2021/12/25 07:05:08;;;;;;;1.45;1.00;;;;;;;;;;7392585;19;20493;-78
2021/12/25 07:07:34;;;;;;;1.65;1.25;;;;;;;;;;7392761;19;20473;-77
2021/12/25 07:09:59;;;;;;;1.67;1.05;;;;;;;;;;7391782;19;20006;-77
2021/12/25 07:12:25;;;;;;;1.70;1.10;;;;;;;;;;7392873;19;20002;-79
2021/12/25 07:14:50;;;;;;;2.15;1.42;;;;;;;;;;7391181;19;20025;-78
2021/12/25 07:17:16;;;;;;;2.42;1.13;;;;;;;;;;7392757;19;19998;-78
2021/12/25 07:19:41;;;;;;;1.08;0.85;;;;;;;;;;7392410;19;19991;-77
2021/12/25 07:22:06;;;;;;;2.67;1.50;;;;;;;;;;7392309;19;20299;-77
2021/12/25 07:24:32;;;;;;;1.40;1.10;;;;;;;;;;7392276;19;20023;-78
2021/12/25 07:26:58;;;;;;;1.30;1.17;;;;;;;;;;7391357;19;19994;-77
2021/12/25 07:29:23;;;;;;;2.53;1.88;;;;;;;;;;7395416;19;20010;-78
2021/12/25 07:31:49;;;;;;;1.40;1.20;;;;;;;;;;7396992;19;20003;-78
2021/12/25 07:34:15;;;;;;;2.58;1.58;;;;;;;;;;7391485;19;20027;-78
2021/12/25 07:36:40;;;;;;;1.70;1.08;;;;;;;;;;7390314;19;20006;-77
2021/12/25 07:39:05;;;;;;;3.40;1.95;;;;;;;;;;7390669;19;20003;-78
2021/12/25 07:41:31;;;;;;;3.65;1.65;;;;;;;;;;7391877;19;20418;-77
2021/12/25 07:43:56;;;;;;;2.15;1.60;;;;;;;;;;7392011;19;20006;-78
2021/12/25 07:46:22;;;;;;;2.70;1.67;;;;;;;;;;7390138;19;20348;-77
2021/12/25 07:48:48;;;;;;;2.10;1.75;;;;;;;;;;7390579;19;20511;-78
2021/12/25 07:51:13;;;;;;;2.55;1.98;;;;;;;;;;7391424;19;20072;-77
2021/12/25 07:53:38;;;;;;;2.67;2.08;;;;;;;;;;7390467;19;19995;-77
2021/12/25 07:56:04;;;;;;;2.40;1.45;;;;;;;;;;7389523;19;19998;-77
2021/12/25 07:58:29;;;;;;;2.25;1.60;;;;;;;;;;7390197;19;19994;-77
2021/12/25 08:00:54;;;;;;;5.38;2.55;;;;;;;;;;7390799;19;20015;-78
2021/12/25 08:03:20;;;;;;;4.95;2.03;;;;;;;;;;7390721;19;20002;-78
2021/12/25 08:05:45;;;;;;;2.20;1.48;;;;;;;;;;7390292;19;20033;-78
2021/12/25 08:08:12;;;;;;;2.22;1.85;;;;;;;;;;7389639;19;20005;-77
2021/12/25 08:10:39;;;;;;;2.70;1.95;;;;;;;;;;7391277;19;19991;-77
2021/12/25 08:13:04;;;;;;;2.92;1.70;;;;;;;;;;7390198;19;20003;-77
2021/12/25 08:15:30;;;;;;;2.63;1.90;;;;;;;;;;7389594;19;20005;-77
2021/12/25 08:17:57;;;;;;;2.03;1.70;;;;;;;;;;7392140;19;20002;-78
2021/12/25 08:20:24;;;;;;;15.77;7.10;;;;;;;;;;7393808;19;20041;-77
2021/12/25 08:22:49;;;;;;;9.48;4.90;;;;;;;;;;7393368;19;20005;-77
2021/12/25 08:25:15;;;;;;;6.78;4.22;;;;;;;;;;7388984;19;20061;-78
2021/12/25 08:27:43;;;;;;;6.38;4.20;;;;;;;;;;7389983;19;19995;-77
2021/12/25 08:30:16;;;;;;;3.22;2.40;;;;;;;;;;7389452;19;20019;-77
2021/12/25 08:32:42;;;;;;;2.55;2.00;;;;;;;;;;7391837;19;20012;-79
2021/12/25 08:35:11;;;;;;;3.30;2.10;;;;;;;;;;7389349;19;20097;-78
2021/12/25 08:37:37;;;;;;;2.25;1.73;;;;;;;;;;7390481;19;20501;-78
2021/12/25 08:40:04;;;;;;;2.22;1.73;;;;;;;;;;7389472;19;20003;-78
2021/12/25 08:42:30;;;;;;;2.03;1.48;;;;;;;;;;7390676;19;20009;-78
2021/12/25 08:47:24;;;;;;;5.50;2.17;;;;;;;;;;7390444;19;20370;-79
2021/12/25 08:49:49;;;;;;;2.40;1.80;;;;;;;;;;7389896;19;20001;-78
2021/12/25 08:52:17;;;;;;;2.72;2.33;;;;;;;;;;7390669;19;20359;-78
2021/12/25 08:54:44;;;;;;;2.50;1.63;;;;;;;;;;7390199;19;20001;-79
2021/12/25 08:57:11;;;;;;;5.80;2.83;;;;;;;;;;7390679;19;20349;-79
2021/12/25 08:59:38;;;;;;;3.88;2.22;;;;;;;;;;7390467;19;19994;-78
2021/12/25 09:02:06;;;;;;;2.40;1.73;;;;;;;;;;7390902;19;20002;-79
2021/12/25 09:04:32;;;;;;;3.58;2.42;;;;;;;;;;7389713;19;20450;-79
2021/12/25 09:06:58;;;;;;;5.03;2.63;;;;;;;;;;7387575;19;20027;-79
2021/12/25 09:09:23;;;;;;;7.20;4.35;;;;;;;;;;7391697;19;20486;-78
2021/12/25 09:11:49;;;;;;;4.32;2.70;;;;;;;;;;7393882;19;20020;-79
2021/12/25 09:14:14;;;;;;;5.53;2.75;;;;;;;;;;7389209;19;19995;-78
2021/12/25 09:16:39;;;;;;;3.78;2.15;;;;;;;;;;7387891;19;20330;-78
2021/12/25 09:19:05;;;;;;;2.85;2.00;;;;;;;;;;7389259;19;20016;-78
2021/12/25 09:21:31;;;;;;;3.28;2.03;;;;;;;;;;7396533;19;20022;-78
2021/12/25 09:23:56;;;;;;;3.38;2.53;;;;;;;;;;7395412;19;19990;-78
2021/12/25 09:26:22;;;;;;;4.45;2.90;;;;;;;;;;7393928;19;20008;-78
2021/12/25 09:28:47;;;;;;;20.95;8.63;;;;;;;;;;7395826;19;20025;-78
2021/12/25 09:31:13;;;;;;;13.10;7.55;;;;;;;;;;7396005;19;20462;-78
2021/12/25 09:33:39;;;;;;;55.90;22.27;;;;;;;;;;7395788;19;20010;-78
2021/12/25 09:36:04;;;;;;;14.27;7.53;;;;;;;;;;7393542;19;20009;-78
2021/12/25 09:38:31;;;;;;;7.88;4.80;;;;;;;;;;7394537;19;20022;-79
2021/12/25 09:40:58;;;;;;;3.90;2.55;;;;;;;;;;7395532;19;19999;-78
2021/12/25 09:43:23;;;;;;;2.97;2.15;;;;;;;;;;7395324;19;19999;-78
2021/12/25 09:45:49;;;;;;;2.97;2.10;;;;;;;;;;7394988;19;20010;-78
2021/12/25 09:48:14;;;;;;;3.15;1.60;;;;;;;;;;7394617;19;19991;-78
2021/12/25 09:50:40;;;;;;;3.38;1.95;;;;;;;;;;7395442;19;20066;-78
2021/12/25 09:53:07;;;;;;;2.70;1.70;;;;;;;;;;7394775;19;20450;-78
2021/12/25 09:55:33;;;;;;;2.70;1.40;;;;;;;;;;7393222;19;20043;-77
2021/12/25 09:57:58;;;;;;;2.15;1.50;;;;;;;;;;7397457;19;20447;-77
2021/12/25 10:00:24;;;;;;;2.05;1.63;;;;;;;;;;7398362;19;20003;-77
2021/12/25 10:02:52;;;;;;;2.47;1.60;;;;;;;;;;7395011;19;19990;-78
2021/12/25 10:05:38;;;;;;;3.42;1.90;;;;;;;;;;7394369;19;20498;-77
2021/12/25 10:08:08;;;;;;;;;;;;;;;;;;7394458;19;20023;-78
2021/12/25 10:10:36;;;;;;;1.77;1.20;;;;;;;;;;7395091;19;20247;-78
2021/12/25 10:13:02;;;;;;;4.97;1.40;;;;;;;;;;7394495;19;20003;-77
2021/12/25 10:15:28;;;;;;;3.30;1.48;;;;;;;;;;7393714;19;20014;-77
2021/12/25 10:17:58;;;;;;;2.95;1.73;;;;;;;;;;7406012;19;20015;-77
2021/12/25 10:20:29;;;;;;;4.82;2.17;;;;;;;;;;7393679;19;20010;-78
2021/12/25 10:23:08;;;;;;;7.47;3.50;;;;;;;;;;7394217;19;19994;-78
2021/12/25 10:25:55;;;;;;;3.67;2.22;;;;;;;;;;7393768;19;20009;-78
2021/12/25 10:28:34;;;;;;;3.30;1.95;;;;;;;;;;7393489;19;19998;-79
2021/12/25 10:31:08;;;;;;;2.35;1.65;;;;;;;;;;7391431;19;20002;-78
2021/12/25 10:33:36;;;;;;;3.00;1.50;;;;;;;;;;7392024;19;20386;-78
2021/12/25 10:36:08;;;;;;;2.80;1.65;;;;;;;;;;7391791;19;20075;-77
2021/12/25 10:38:33;;;;;;;3.80;1.50;;;;;;;;;;7392336;19;20036;-78
2021/12/25 10:41:22;;;;;;;2.45;1.50;;;;;;;;;;7393687;19;20403;-77
2021/12/25 10:43:50;;;;;;;2.83;2.13;;;;;;;;;;7393558;19;20033;-78
2021/12/25 10:46:15;;;;;;;1.73;1.42;;;;;;;;;;7392588;19;20434;-78
2021/12/25 10:48:41;;;;;;;1.40;0.90;;;;;;;;;;7397174;19;20023;-77
2021/12/25 10:51:22;;;;;;;1.95;0.95;;;;;;;;;;7393651;19;20475;-78
2021/12/25 10:53:52;;;;;;;2.80;1.50;;;;;;;;;;7392281;19;19999;-78
2021/12/25 10:56:19;;;;;;;2.83;1.30;;;;;;;;;;7391146;19;20005;-77
2021/12/25 10:58:45;;;;;;;2.00;1.40;;;;;;;;;;7392480;19;19998;-78
2021/12/25 11:01:13;;;;;;;3.30;2.05;;;;;;;;;;7393506;19;20015;-78
2021/12/25 11:03:41;;;;;;;5.35;2.25;;;;;;;;;;7392774;19;20058;-78
2021/12/25 11:06:09;;;;;;;1.85;1.30;;;;;;;;;;7391295;19;19994;-77
2021/12/25 11:08:37;;;;;;;2.05;1.42;;;;;;;;;;7391984;19;20003;-77
2021/12/25 11:11:08;;;;;;;1.80;1.40;;;;;;;;;;7392689;19;20074;-77
2021/12/25 11:13:34;;;;;;;2.55;1.50;;;;;;;;;;7392943;19;19994;-77
2021/12/25 11:16:15;;;;;;;2.53;1.60;;;;;;;;;;7390825;19;19995;-77
2021/12/25 11:18:51;;;;;;;2.97;1.52;;;;;;;;;;7391575;19;20019;-77
2021/12/25 11:21:16;;;;;;;;;;;;;;;;;;7392990;19;19995;-77
2021/12/25 11:23:42;;;;;;;5.28;1.73;;;;;;;;;;7391724;19;20003;-77
2021/12/25 11:26:08;;;;;;;2.65;1.90;;;;;;;;;;7391297;19;20005;-77
2021/12/25 11:28:33;;;;;;;3.28;1.50;;;;;;;;;;7391295;19;19998;-77
2021/12/25 11:30:59;;;;;;;2.45;1.60;;;;;;;;;;7392187;19;19994;-77
2021/12/25 11:33:24;;;;;;;5.45;2.00;;;;;;;;;;7392079;19;20450;-77
2021/12/25 11:35:49;;;;;;;4.88;1.92;;;;;;;;;;7391840;19;19998;-77
2021/12/25 11:38:15;;;;;;;3.38;2.28;;;;;;;;;;7393697;19;19998;-77
2021/12/25 11:40:49;;;;;;;3.03;1.63;;;;;;;;;;7392185;19;19994;-77
2021/12/25 11:43:15;;;;;;;1.60;1.27;;;;;;;;;;7391119;19;19994;-77
2021/12/25 11:45:42;;;;;;;4.15;1.77;;;;;;;;;;7390630;19;20029;-77
2021/12/25 11:48:19;;;;;;;3.67;1.48;;;;;;;;;;7391681;19;20014;-77
2021/12/25 11:50:49;;;;;;;2.03;1.40;;;;;;;;;;7391928;19;20013;-77
2021/12/25 11:53:24;;;;;;;2.95;1.80;;;;;;;;;;7390825;19;19999;-77
2021/12/25 11:58:52;;;;;;;2.95;1.80;;;;;;;;;;7390819;19;19910;-77
2021/12/25 12:01:49;;;;;;;2.40;1.60;;;;;;;;;;7391229;19;20015;-77
2021/12/25 12:04:21;;;;;;;;;;;;;;;;;;7391967;19;19999;-77
2021/12/25 12:06:46;;;;;;;3.15;1.45;;;;;;;;;;7389328;19;19907;-77
2021/12/25 12:09:13;;;;;;;3.73;1.80;;;;;;;;;;7389756;19;19998;-78
2021/12/25 12:11:41;;;;;;;5.70;2.60;;;;;;;;;;7390778;19;20770;-77
2021/12/25 12:14:20;;;;;;;4.25;2.50;;;;;;;;;;7390646;19;20007;-77
2021/12/25 12:16:48;;;;;;;5.15;2.67;;;;;;;;;;7389269;19;20002;-77
2021/12/25 12:19:39;;;;;;;7.72;2.50;;;;;;;;;;7389464;19;19990;-77
2021/12/25 12:27:59;;;;;;;4.20;1.92;;;;;;;;;;7394576;19;20482;-77
2021/12/25 12:30:30;;;;;;;3.88;1.98;;;;;;;;;;7389851;19;20031;-77
2021/12/25 12:32:57;;;;;;;2.80;1.77;;;;;;;;;;7390003;19;20019;-77
2021/12/25 12:35:37;;;;;;;3.05;1.77;;;;;;;;;;7389008;19;20002;-77
2021/12/25 12:38:27;;;;;;;2.70;1.40;;;;;;;;;;7389135;19;19995;-78
2021/12/25 12:41:26;;;;;;;2.42;1.75;;;;;;;;;;7389927;19;20028;-78
2021/12/25 12:44:10;;;;;;;3.00;1.42;;;;;;;;;;7388386;19;19998;-77
2021/12/25 12:46:47;;;;;;;2.10;1.50;;;;;;;;;;7388510;19;20477;-77
2021/12/25 12:49:13;;;;;;;1.63;1.30;;;;;;;;;;7389138;19;20003;-78
2021/12/25 12:51:38;;;;;;;2.47;1.50;;;;;;;;;;7389522;19;19998;-77
2021/12/25 12:54:04;;;;;;;2.97;1.70;;;;;;;;;;7387060;19;20465;-77
2021/12/25 12:56:30;;;;;;;1.63;1.30;;;;;;;;;;7387532;19;20031;-76
2021/12/25 12:58:57;;;;;;;4.43;2.60;;;;;;;;;;7388603;19;19999;-77
2021/12/25 13:01:24;;;;;;;2.92;1.80;;;;;;;;;;7389420;19;19999;-77
2021/12/25 13:04:01;;;;;;;2.55;1.90;;;;;;;;;;7389036;19;19991;-78
2021/12/25 13:06:28;;;;;;;1.33;1.20;;;;;;;;;;7387419;19;20006;-77
2021/12/25 13:08:54;;;;;;;2.92;1.55;;;;;;;;;;7387871;19;20360;-77
2021/12/25 13:11:37;;;;;;;2.35;1.45;;;;;;;;;;7389380;19;19999;-78
2021/12/25 13:14:04;;;;;;;2.70;1.80;;;;;;;;;;7389149;19;20002;-77
2021/12/25 13:16:39;;;;;;;3.88;1.52;;;;;;;;;;7388689;19;20462;-77
2021/12/25 13:19:05;;;;;;;2.33;1.40;;;;;;;;;;7392378;19;20091;-77
2021/12/25 13:21:33;;;;;;;3.20;1.70;;;;;;;;;;7388389;19;20462;-77
2021/12/25 13:24:07;;;;;;;2.63;1.40;;;;;;;;;;7388306;19;20006;-78
2021/12/25 13:26:37;;;;;;;2.60;1.50;;;;;;;;;;7387209;19;20005;-77
2021/12/25 13:29:17;;;;;;;2.83;1.67;;;;;;;;;;7388590;19;20015;-77
2021/12/25 13:31:44;;;;;;;2.17;1.52;;;;;;;;;;7388416;19;20020;-77
2021/12/25 13:34:13;;;;;;;4.40;1.88;;;;;;;;;;7388038;19;20015;-77
2021/12/25 13:36:41;;;;;;;2.65;1.55;;;;;;;;;;7386098;19;20009;-77
2021/12/25 13:39:13;;;;;;;2.28;1.42;;;;;;;;;;7387082;19;20050;-77
2021/12/25 13:41:40;;;;;;;3.03;1.70;;;;;;;;;;7388437;19;20002;-78
2021/12/25 13:44:15;;;;;;;2.85;1.95;;;;;;;;;;7388066;19;20003;-78
2021/12/25 13:46:45;;;;;;;2.90;1.70;;;;;;;;;;7386247;19;20111;-78
2021/12/25 13:49:35;;;;;;;3.28;1.92;;;;;;;;;;7388201;19;19994;-78
2021/12/25 13:52:07;;;;;;;1.80;1.33;;;;;;;;;;7388301;19;19999;-77
2021/12/25 13:54:35;;;;;;;2.67;1.75;;;;;;;;;;7386854;19;19994;-78
2021/12/25 13:57:00;;;;;;;2.20;1.40;;;;;;;;;;7385502;19;20020;-78
2021/12/25 13:59:26;;;;;;;4.68;1.80;;;;;;;;;;7387110;19;20002;-77
2021/12/25 14:02:03;;;;;;;1.70;1.45;;;;;;;;;;7388117;19;19998;-77
2021/12/25 14:04:29;;;;;;;1.92;1.40;;;;;;;;;;7387739;19;20115;-77
2021/12/25 14:06:55;;;;;;;7.07;3.63;;;;;;;;;;7394433;19;20017;-77
2021/12/25 14:09:21;;;;;;;2.40;1.90;;;;;;;;;;7397177;19;20002;-77
2021/12/25 14:11:52;;;;;;;2.75;1.60;;;;;;;;;;7395316;19;19991;-77
2021/12/25 14:14:22;;;;;;;2.53;1.50;;;;;;;;;;7394450;19;20011;-78
2021/12/25 14:16:49;;;;;;;3.53;2.10;;;;;;;;;;7392528;19;20002;-77
2021/12/25 14:19:14;;;;;;;3.53;1.95;;;;;;;;;;7393635;19;20066;-77
2021/12/25 14:21:51;;;;;;;5.82;2.17;;;;;;;;;;7397658;19;20353;-77
2021/12/25 14:24:17;;;;;;;3.83;1.52;;;;;;;;;;7393751;19;20312;-77
2021/12/25 14:26:42;;;;;;;6.35;3.72;;;;;;;;;;7392671;19;19990;-77
2021/12/25 14:29:26;;;;;;;6.65;4.03;;;;;;;;;;7393664;19;20454;-78
2021/12/25 14:31:52;;;;;;;5.60;3.25;;;;;;;;;;7393958;19;20012;-77
2021/12/25 14:34:18;;;;;;;3.25;2.20;;;;;;;;;;7392492;19;20026;-78
2021/12/25 14:36:44;;;;;;;4.63;2.97;;;;;;;;;;7391592;19;20010;-78
2021/12/25 14:39:17;;;;;;;3.20;1.90;;;;;;;;;;7392305;19;19994;-77
2021/12/25 14:41:43;;;;;;;2.63;1.70;;;;;;;;;;7393553;19;19995;-76
2021/12/25 14:44:24;;;;;;;2.63;1.67;;;;;;;;;;7391639;19;19994;-77
2021/12/25 14:47:10;;;;;;;4.57;1.38;;;;;;;;;;7391596;19;20137;-77
2021/12/25 14:49:46;;;;;;;2.80;1.77;;;;;;;;;;7393162;19;19990;-77
2021/12/25 14:52:12;;;;;;;2.03;1.70;;;;;;;;;;7393343;19;20065;-78
2021/12/25 14:54:39;;;;;;;2.75;1.52;;;;;;;;;;7392715;19;21762;-78
2021/12/25 14:57:04;;;;;;;2.25;1.50;;;;;;;;;;7394399;19;20394;-78
2021/12/25 14:59:31;;;;;;;2.22;1.30;;;;;;;;;;7392632;19;20458;-77
2021/12/25 15:02:03;;;;;;;4.03;1.50;;;;;;;;;;7393028;19;20078;-77
2021/12/25 15:04:35;;;;;;;3.33;1.58;;;;;;;;;;7392892;19;19995;-78
2021/12/25 15:07:09;;;;;;;2.10;1.73;;;;;;;;;;7390172;19;20004;-78
2021/12/25 15:09:39;;;;;;;3.65;1.90;;;;;;;;;;7391858;19;19998;-78
2021/12/25 15:12:15;;;;;;;3.47;2.13;;;;;;;;;;7392437;19;20005;-78
2021/12/25 15:15:05;;;;;;;3.88;2.60;;;;;;;;;;7392270;19;20054;-77
2021/12/25 15:17:31;;;;;;;3.50;2.40;;;;;;;;;;7389851;19;20076;-77
2021/12/25 15:20:18;;;;;;;3.15;2.20;;;;;;;;;;7391690;19;20352;-78
2021/12/25 15:22:45;;;;;;;4.43;2.10;;;;;;;;;;7392620;19;20315;-77
2021/12/25 15:25:16;;;;;;;2.80;1.95;;;;;;;;;;7391225;19;20481;-77
2021/12/25 15:27:50;;;;;;;2.97;2.50;;;;;;;;;;7392335;19;19994;-77
2021/12/25 15:30:21;;;;;;;4.53;3.13;;;;;;;;;;7391546;19;20006;-78
2021/12/25 15:32:52;;;;;;;6.32;3.30;;;;;;;;;;7392311;19;20443;-77
2021/12/25 15:35:26;;;;;;;2.95;2.03;;;;;;;;;;7391704;19;19995;-77
2021/12/25 15:37:52;;;;;;;4.53;2.97;;;;;;;;;;7391973;19;20465;-78
2021/12/25 15:40:23;;;;;;;6.95;2.95;;;;;;;;;;7390784;19;20010;-78
2021/12/25 15:42:49;;;;;;;4.03;2.55;;;;;;;;;;7391967;19;20093;-78
2021/12/25 15:45:15;;;;;;;4.57;2.17;;;;;;;;;;7394659;19;20022;-77
2021/12/25 15:47:42;;;;;;;3.35;2.10;;;;;;;;;;7395664;19;20006;-77
2021/12/25 15:50:10;;;;;;;4.00;2.75;;;;;;;;;;7390752;19;20032;-78
2021/12/25 15:52:35;;;;;;;3.17;2.35;;;;;;;;;;7391348;19;20033;-77
2021/12/25 15:55:01;;;;;;;4.57;2.80;;;;;;;;;;7390187;19;19999;-78
2021/12/25 15:57:27;;;;;;;3.65;2.60;;;;;;;;;;7391099;19;20114;-78
2021/12/25 15:59:53;;;;;;;3.78;2.50;;;;;;;;;;7390467;19;20328;-77
2021/12/25 16:02:23;;;;;;;4.30;2.30;;;;;;;;;;7390741;19;20001;-77
2021/12/25 16:04:49;;;;;;;7.50;3.78;;;;;;;;;;7389244;19;19995;-78
2021/12/25 16:07:15;;;;;;;16.92;6.82;;;;;;;;;;7391275;19;20072;-78
2021/12/25 16:09:40;;;;;;;9.18;3.90;;;;;;;;;;7389981;19;20017;-77